sensor_id;sensor_type;location;lat;lon;timestamp;pressure;altitude;pressure_sealevel;temperature;humidity
55801;BME280;41730;51.960;20.158;2023-04-12T00:02:15;99530.71;;;8.92;72.87
55801;BME280;41730;51.960;20.158;2023-04-12T00:04:47;99528.73;;;8.82;73.04
55801;BME280;41730;51.960;20.158;2023-04-12T00:07:25;99529.38;;;8.77;73.43
55801;BME280;41730;51.960;20.158;2023-04-12T00:09:56;99530.14;;;8.74;73.45
55801;BME280;41730;51.960;20.158;2023-04-12T00:12:28;99531.45;;;8.92;72.99
55801;BME280;41730;51.960;20.158;2023-04-12T00:15:00;99524.46;;;9.01;72.73
55801;BME280;41730;51.960;20.158;2023-04-12T00:17:32;99527.05;;;9.02;72.64
55801;BME280;41730;51.960;20.158;2023-04-12T00:20:07;99522.31;;;8.94;72.88
55801;BME280;41730;51.960;20.158;2023-04-12T00:22:41;99527.02;;;8.90;73.05
55801;BME280;41730;51.960;20.158;2023-04-12T00:25:13;99525.77;;;9.04;72.75
55801;BME280;41730;51.960;20.158;2023-04-12T00:27:45;99529.20;;;8.95;73.00
55801;BME280;41730;51.960;20.158;2023-04-12T00:30:16;99527.76;;;8.84;73.44
55801;BME280;41730;51.960;20.158;2023-04-12T00:32:48;99532.58;;;8.74;74.03
55801;BME280;41730;51.960;20.158;2023-04-12T00:35:20;99533.91;;;8.91;73.63
55801;BME280;41730;51.960;20.158;2023-04-12T00:37:52;99531.83;;;8.97;73.26
55801;BME280;41730;51.960;20.158;2023-04-12T00:40:23;99529.16;;;8.92;73.65
55801;BME280;41730;51.960;20.158;2023-04-12T00:42:55;99529.30;;;9.12;73.11
55801;BME280;41730;51.960;20.158;2023-04-12T00:45:27;99523.67;;;9.16;72.75
55801;BME280;41730;51.960;20.158;2023-04-12T00:47:59;99515.35;;;8.98;73.10
55801;BME280;41730;51.960;20.158;2023-04-12T00:50:31;99518.05;;;8.97;73.68
55801;BME280;41730;51.960;20.158;2023-04-12T00:53:04;99514.98;;;9.06;73.21
55801;BME280;41730;51.960;20.158;2023-04-12T00:55:35;99508.58;;;9.01;73.67
55801;BME280;41730;51.960;20.158;2023-04-12T00:58:07;99498.35;;;9.00;73.43
55801;BME280;41730;51.960;20.158;2023-04-12T01:00:39;99494.21;;;9.02;73.56
55801;BME280;41730;51.960;20.158;2023-04-12T01:03:10;99481.23;;;9.04;73.41
55801;BME280;41730;51.960;20.158;2023-04-12T01:05:49;99477.43;;;9.13;73.23
55801;BME280;41730;51.960;20.158;2023-04-12T01:08:31;99477.50;;;9.23;72.79
55801;BME280;41730;51.960;20.158;2023-04-12T01:11:14;99476.21;;;9.21;72.75
55801;BME280;41730;51.960;20.158;2023-04-12T01:13:54;99477.55;;;9.24;72.18
55801;BME280;41730;51.960;20.158;2023-04-12T01:16:33;99472.89;;;9.25;72.25
55801;BME280;41730;51.960;20.158;2023-04-12T01:19:17;99473.60;;;9.27;72.18
55801;BME280;41730;51.960;20.158;2023-04-12T01:21:58;99475.14;;;9.26;72.15
55801;BME280;41730;51.960;20.158;2023-04-12T01:24:40;99478.27;;;9.26;72.00
55801;BME280;41730;51.960;20.158;2023-04-12T01:27:18;99482.36;;;9.11;72.10
55801;BME280;41730;51.960;20.158;2023-04-12T01:29:52;99486.73;;;9.07;72.35
55801;BME280;41730;51.960;20.158;2023-04-12T01:32:25;99490.77;;;8.95;72.68
55801;BME280;41730;51.960;20.158;2023-04-12T01:34:58;99492.05;;;8.94;72.92
55801;BME280;41730;51.960;20.158;2023-04-12T01:37:32;99494.63;;;8.89;73.04
55801;BME280;41730;51.960;20.158;2023-04-12T01:40:05;99493.86;;;8.96;73.19
55801;BME280;41730;51.960;20.158;2023-04-12T01:42:38;99498.85;;;9.12;72.60
55801;BME280;41730;51.960;20.158;2023-04-12T01:45:10;99499.61;;;9.26;71.93
55801;BME280;41730;51.960;20.158;2023-04-12T01:47:42;99498.55;;;9.18;72.39
55801;BME280;41730;51.960;20.158;2023-04-12T01:50:19;99497.17;;;9.28;71.90
55801;BME280;41730;51.960;20.158;2023-04-12T01:52:56;99494.34;;;9.20;72.20
55801;BME280;41730;51.960;20.158;2023-04-12T01:55:32;99494.42;;;9.09;72.59
55801;BME280;41730;51.960;20.158;2023-04-12T01:58:05;99493.64;;;9.20;72.23
55801;BME280;41730;51.960;20.158;2023-04-12T02:00:38;99485.38;;;9.20;72.22
55801;BME280;41730;51.960;20.158;2023-04-12T02:03:12;99483.59;;;9.35;71.89
55801;BME280;41730;51.960;20.158;2023-04-12T02:05:44;99483.36;;;9.45;71.38
55801;BME280;41730;51.960;20.158;2023-04-12T02:08:16;99475.96;;;9.44;71.55
55801;BME280;41730;51.960;20.158;2023-04-12T02:10:48;99474.73;;;9.46;71.32
55801;BME280;41730;51.960;20.158;2023-04-12T02:13:20;99470.70;;;9.34;71.85
55801;BME280;41730;51.960;20.158;2023-04-12T02:15:51;99472.20;;;9.37;71.78
55801;BME280;41730;51.960;20.158;2023-04-12T02:18:23;99469.42;;;9.39;71.55
55801;BME280;41730;51.960;20.158;2023-04-12T02:20:55;99467.31;;;9.35;71.87
55801;BME280;41730;51.960;20.158;2023-04-12T02:23:27;99461.74;;;9.25;72.15
55801;BME280;41730;51.960;20.158;2023-04-12T02:25:58;99458.77;;;9.19;72.26
55801;BME280;41730;51.960;20.158;2023-04-12T02:28:30;99463.43;;;9.06;72.70
55801;BME280;41730;51.960;20.158;2023-04-12T02:31:03;99467.59;;;9.10;72.47
55801;BME280;41730;51.960;20.158;2023-04-12T02:33:36;99474.70;;;9.10;72.69
55801;BME280;41730;51.960;20.158;2023-04-12T02:36:10;99474.18;;;9.09;72.89
55801;BME280;41730;51.960;20.158;2023-04-12T02:38:41;99468.52;;;9.07;72.99
55801;BME280;41730;51.960;20.158;2023-04-12T02:41:19;99470.39;;;9.02;73.17
55801;BME280;41730;51.960;20.158;2023-04-12T02:43:50;99473.49;;;9.08;73.28
55801;BME280;41730;51.960;20.158;2023-04-12T02:46:23;99477.18;;;9.16;72.83
55801;BME280;41730;51.960;20.158;2023-04-12T02:48:56;99476.18;;;9.18;73.00
55801;BME280;41730;51.960;20.158;2023-04-12T02:51:27;99479.57;;;9.11;73.17
55801;BME280;41730;51.960;20.158;2023-04-12T02:53:59;99483.95;;;9.15;73.11
55801;BME280;41730;51.960;20.158;2023-04-12T02:56:33;99489.41;;;9.30;72.62
55801;BME280;41730;51.960;20.158;2023-04-12T02:59:05;99491.35;;;9.32;72.20
55801;BME280;41730;51.960;20.158;2023-04-12T03:01:36;99493.33;;;9.24;72.66
55801;BME280;41730;51.960;20.158;2023-04-12T03:04:08;99501.23;;;9.19;72.65
55801;BME280;41730;51.960;20.158;2023-04-12T03:06:40;99498.45;;;9.13;72.99
55801;BME280;41730;51.960;20.158;2023-04-12T03:09:21;99498.45;;;9.17;73.26
55801;BME280;41730;51.960;20.158;2023-04-12T03:11:53;99501.67;;;9.20;73.30
55801;BME280;41730;51.960;20.158;2023-04-12T03:14:24;99499.40;;;9.30;72.82
55801;BME280;41730;51.960;20.158;2023-04-12T03:16:56;99498.17;;;9.40;72.41
55801;BME280;41730;51.960;20.158;2023-04-12T03:19:27;99495.56;;;9.24;73.03
55801;BME280;41730;51.960;20.158;2023-04-12T03:22:02;99494.94;;;9.17;73.57
55801;BME280;41730;51.960;20.158;2023-04-12T03:24:34;99490.39;;;9.13;73.29
55801;BME280;41730;51.960;20.158;2023-04-12T03:27:12;99483.50;;;9.04;73.68
55801;BME280;41730;51.960;20.158;2023-04-12T03:29:53;99486.66;;;9.22;73.15
55801;BME280;41730;51.960;20.158;2023-04-12T03:32:36;99491.16;;;9.23;73.10
55801;BME280;41730;51.960;20.158;2023-04-12T03:35:16;99490.20;;;9.11;73.38
55801;BME280;41730;51.960;20.158;2023-04-12T03:37:57;99486.52;;;9.02;73.72
55801;BME280;41730;51.960;20.158;2023-04-12T03:40:29;99490.52;;;9.06;73.93
55801;BME280;41730;51.960;20.158;2023-04-12T03:43:00;99489.55;;;9.35;73.17
55801;BME280;41730;51.960;20.158;2023-04-12T03:45:32;99480.22;;;9.47;72.49
55801;BME280;41730;51.960;20.158;2023-04-12T03:48:04;99491.21;;;9.36;72.71
55801;BME280;41730;51.960;20.158;2023-04-12T03:50:36;99489.95;;;9.30;73.13
55801;BME280;41730;51.960;20.158;2023-04-12T03:53:13;99490.48;;;9.32;72.95
55801;BME280;41730;51.960;20.158;2023-04-12T03:55:45;99490.15;;;9.26;72.95
55801;BME280;41730;51.960;20.158;2023-04-12T03:58:17;99485.73;;;9.40;72.85
55801;BME280;41730;51.960;20.158;2023-04-12T04:00:49;99487.98;;;9.58;72.30
55801;BME280;41730;51.960;20.158;2023-04-12T04:03:21;99488.12;;;9.52;72.43
55801;BME280;41730;51.960;20.158;2023-04-12T04:05:58;99485.23;;;9.48;72.44
55801;BME280;41730;51.960;20.158;2023-04-12T04:08:30;99487.75;;;9.37;72.95
55801;BME280;41730;51.960;20.158;2023-04-12T04:11:03;99486.56;;;9.27;73.11
55801;BME280;41730;51.960;20.158;2023-04-12T04:13:37;99486.94;;;9.19;73.17
55801;BME280;41730;51.960;20.158;2023-04-12T04:16:10;99491.94;;;9.33;73.07
55801;BME280;41730;51.960;20.158;2023-04-12T04:18:42;99490.25;;;9.41;72.76
55801;BME280;41730;51.960;20.158;2023-04-12T04:21:14;99493.06;;;9.44;72.53
55801;BME280;41730;51.960;20.158;2023-04-12T04:23:46;99493.06;;;9.54;72.38
55801;BME280;41730;51.960;20.158;2023-04-12T04:26:17;99492.55;;;9.66;71.99
55801;BME280;41730;51.960;20.158;2023-04-12T04:28:49;99494.13;;;9.68;71.83
55801;BME280;41730;51.960;20.158;2023-04-12T04:31:20;99499.31;;;9.58;72.31
55801;BME280;41730;51.960;20.158;2023-04-12T04:33:55;99499.23;;;9.59;72.22
55801;BME280;41730;51.960;20.158;2023-04-12T04:36:27;99502.71;;;9.73;71.95
55801;BME280;41730;51.960;20.158;2023-04-12T04:39:01;99508.41;;;9.69;72.13
55801;BME280;41730;51.960;20.158;2023-04-12T04:41:33;99509.92;;;9.63;72.68
55801;BME280;41730;51.960;20.158;2023-04-12T04:44:08;99509.31;;;9.62;72.44
55801;BME280;41730;51.960;20.158;2023-04-12T04:46:40;99508.92;;;9.43;72.77
55801;BME280;41730;51.960;20.158;2023-04-12T04:49:12;99509.45;;;9.24;73.57
55801;BME280;41730;51.960;20.158;2023-04-12T04:51:43;99511.59;;;9.17;73.86
55801;BME280;41730;51.960;20.158;2023-04-12T04:54:16;99511.86;;;9.05;73.98
55801;BME280;41730;51.960;20.158;2023-04-12T04:56:49;99511.57;;;9.09;74.08
55801;BME280;41730;51.960;20.158;2023-04-12T04:59:21;99509.27;;;9.09;74.11
55801;BME280;41730;51.960;20.158;2023-04-12T05:01:53;99512.05;;;9.15;74.03
55801;BME280;41730;51.960;20.158;2023-04-12T05:04:25;99515.98;;;9.31;73.56
55801;BME280;41730;51.960;20.158;2023-04-12T05:06:56;99516.83;;;9.29;73.71
55801;BME280;41730;51.960;20.158;2023-04-12T05:09:28;99517.88;;;9.29;73.72
55801;BME280;41730;51.960;20.158;2023-04-12T05:11:59;99510.94;;;9.24;73.57
55801;BME280;41730;51.960;20.158;2023-04-12T05:14:31;99508.50;;;9.20;73.77
55801;BME280;41730;51.960;20.158;2023-04-12T05:17:18;99511.08;;;9.23;73.78
55801;BME280;41730;51.960;20.158;2023-04-12T05:19:50;99512.83;;;9.18;73.62
55801;BME280;41730;51.960;20.158;2023-04-12T05:22:21;99513.28;;;9.07;73.95
55801;BME280;41730;51.960;20.158;2023-04-12T05:24:53;99512.96;;;9.13;74.19
55801;BME280;41730;51.960;20.158;2023-04-12T05:27:24;99515.52;;;9.32;73.60
55801;BME280;41730;51.960;20.158;2023-04-12T05:29:56;99518.73;;;9.45;73.06
55801;BME280;41730;51.960;20.158;2023-04-12T05:32:29;99518.79;;;9.44;72.70
55801;BME280;41730;51.960;20.158;2023-04-12T05:35:01;99520.46;;;9.39;73.22
55801;BME280;41730;51.960;20.158;2023-04-12T05:37:32;99526.25;;;9.45;73.01
55801;BME280;41730;51.960;20.158;2023-04-12T05:40:05;99525.60;;;9.38;73.16
55801;BME280;41730;51.960;20.158;2023-04-12T05:42:38;99528.34;;;9.41;73.08
55801;BME280;41730;51.960;20.158;2023-04-12T05:45:12;99531.80;;;9.51;72.90
55801;BME280;41730;51.960;20.158;2023-04-12T05:47:43;99536.69;;;9.48;72.92
55801;BME280;41730;51.960;20.158;2023-04-12T05:50:16;99538.02;;;9.34;73.10
55801;BME280;41730;51.960;20.158;2023-04-12T05:52:49;99537.11;;;9.31;73.31
55801;BME280;41730;51.960;20.158;2023-04-12T05:55:22;99538.75;;;9.38;73.18
55801;BME280;41730;51.960;20.158;2023-04-12T05:57:53;99544.15;;;9.48;72.79
55801;BME280;41730;51.960;20.158;2023-04-12T06:00:25;99544.71;;;9.46;73.31
55801;BME280;41730;51.960;20.158;2023-04-12T06:02:57;99542.25;;;9.36;73.33
55801;BME280;41730;51.960;20.158;2023-04-12T06:05:29;99537.41;;;9.33;73.67
55801;BME280;41730;51.960;20.158;2023-04-12T06:08:01;99538.33;;;9.43;73.14
55801;BME280;41730;51.960;20.158;2023-04-12T06:10:34;99537.46;;;9.43;73.23
55801;BME280;41730;51.960;20.158;2023-04-12T06:13:06;99538.83;;;9.47;73.18
55801;BME280;41730;51.960;20.158;2023-04-12T06:15:40;99541.46;;;9.59;73.04
55801;BME280;41730;51.960;20.158;2023-04-12T06:18:12;99544.33;;;9.54;72.86
55801;BME280;41730;51.960;20.158;2023-04-12T06:20:44;99547.31;;;9.62;72.55
55801;BME280;41730;51.960;20.158;2023-04-12T06:23:16;99547.59;;;9.67;72.41
55801;BME280;41730;51.960;20.158;2023-04-12T06:25:49;99547.34;;;9.52;72.77
55801;BME280;41730;51.960;20.158;2023-04-12T06:28:22;99546.38;;;9.43;73.27
55801;BME280;41730;51.960;20.158;2023-04-12T06:30:55;99544.30;;;9.47;73.31
55801;BME280;41730;51.960;20.158;2023-04-12T06:33:26;99540.10;;;9.60;72.81
55801;BME280;41730;51.960;20.158;2023-04-12T06:35:58;99543.20;;;9.84;72.30
55801;BME280;41730;51.960;20.158;2023-04-12T06:38:30;99545.89;;;9.86;71.91
55801;BME280;41730;51.960;20.158;2023-04-12T06:41:02;99544.03;;;9.69;72.34
55801;BME280;41730;51.960;20.158;2023-04-12T06:43:35;99543.99;;;9.66;72.71
55801;BME280;41730;51.960;20.158;2023-04-12T06:46:08;99541.58;;;9.73;72.24
55801;BME280;41730;51.960;20.158;2023-04-12T06:48:40;99541.52;;;9.72;72.39
55801;BME280;41730;51.960;20.158;2023-04-12T06:51:11;99545.52;;;9.74;72.49
55801;BME280;41730;51.960;20.158;2023-04-12T06:53:43;99546.49;;;9.87;72.15
55801;BME280;41730;51.960;20.158;2023-04-12T06:56:14;99545.05;;;9.95;71.96
55801;BME280;41730;51.960;20.158;2023-04-12T06:58:47;99544.55;;;10.04;71.63
55801;BME280;41730;51.960;20.158;2023-04-12T07:01:19;99543.42;;;10.19;71.20
55801;BME280;41730;51.960;20.158;2023-04-12T07:03:51;99542.30;;;10.15;71.28
55801;BME280;41730;51.960;20.158;2023-04-12T07:06:23;99542.71;;;10.06;71.55
55801;BME280;41730;51.960;20.158;2023-04-12T07:08:55;99545.30;;;9.98;71.84
55801;BME280;41730;51.960;20.158;2023-04-12T07:11:27;99546.74;;;9.97;71.66
55801;BME280;41730;51.960;20.158;2023-04-12T07:14:00;99546.72;;;9.92;71.92
55801;BME280;41730;51.960;20.158;2023-04-12T07:16:32;99548.86;;;9.93;72.15
55801;BME280;41730;51.960;20.158;2023-04-12T07:19:03;99546.00;;;9.94;72.02
55801;BME280;41730;51.960;20.158;2023-04-12T07:21:35;99545.58;;;10.00;72.01
55801;BME280;41730;51.960;20.158;2023-04-12T07:24:07;99546.65;;;10.04;71.96
55801;BME280;41730;51.960;20.158;2023-04-12T07:26:39;99545.38;;;10.11;71.71
55801;BME280;41730;51.960;20.158;2023-04-12T07:29:11;99544.88;;;10.16;71.41
55801;BME280;41730;51.960;20.158;2023-04-12T07:31:42;99543.14;;;10.18;71.62
55801;BME280;41730;51.960;20.158;2023-04-12T07:34:14;99540.68;;;10.26;71.37
55801;BME280;41730;51.960;20.158;2023-04-12T07:36:46;99539.79;;;10.32;71.03
55801;BME280;41730;51.960;20.158;2023-04-12T07:39:18;99543.15;;;10.37;70.89
55801;BME280;41730;51.960;20.158;2023-04-12T07:41:50;99543.30;;;10.34;70.92
55801;BME280;41730;51.960;20.158;2023-04-12T07:44:22;99543.52;;;10.41;70.87
55801;BME280;41730;51.960;20.158;2023-04-12T07:46:55;99548.38;;;10.58;70.47
55801;BME280;41730;51.960;20.158;2023-04-12T07:49:28;99546.56;;;10.72;70.11
55801;BME280;41730;51.960;20.158;2023-04-12T07:52:00;99537.30;;;10.68;70.11
55801;BME280;41730;51.960;20.158;2023-04-12T07:54:32;99539.14;;;10.67;70.35
55801;BME280;41730;51.960;20.158;2023-04-12T07:57:04;99534.06;;;10.69;70.38
55801;BME280;41730;51.960;20.158;2023-04-12T07:59:35;99534.98;;;10.66;70.47
55801;BME280;41730;51.960;20.158;2023-04-12T08:02:07;99535.06;;;10.60;70.54
55801;BME280;41730;51.960;20.158;2023-04-12T08:04:41;99536.94;;;10.44;70.96
55801;BME280;41730;51.960;20.158;2023-04-12T08:07:20;99535.91;;;10.39;71.00
55801;BME280;41730;51.960;20.158;2023-04-12T08:09:53;99536.19;;;10.35;71.27
55801;BME280;41730;51.960;20.158;2023-04-12T08:12:26;99542.05;;;10.24;71.88
55801;BME280;41730;51.960;20.158;2023-04-12T08:14:57;99542.66;;;10.29;71.69
55801;BME280;41730;51.960;20.158;2023-04-12T08:17:29;99540.52;;;10.23;71.46
55801;BME280;41730;51.960;20.158;2023-04-12T08:20:01;99539.86;;;10.19;71.67
55801;BME280;41730;51.960;20.158;2023-04-12T08:22:33;99540.38;;;10.25;71.57
55801;BME280;41730;51.960;20.158;2023-04-12T08:25:08;99542.25;;;10.34;71.36
55801;BME280;41730;51.960;20.158;2023-04-12T08:27:40;99542.10;;;10.37;71.37
55801;BME280;41730;51.960;20.158;2023-04-12T08:30:14;99541.91;;;10.44;71.14
55801;BME280;41730;51.960;20.158;2023-04-12T08:32:47;99540.68;;;10.49;71.07
55801;BME280;41730;51.960;20.158;2023-04-12T08:35:20;99540.61;;;10.57;70.89
55801;BME280;41730;51.960;20.158;2023-04-12T08:37:53;99536.77;;;10.75;70.44
55801;BME280;41730;51.960;20.158;2023-04-12T08:40:26;99538.46;;;10.76;70.29
55801;BME280;41730;51.960;20.158;2023-04-12T08:43:01;99543.17;;;10.67;70.38
55801;BME280;41730;51.960;20.158;2023-04-12T08:45:39;99543.62;;;10.72;70.56
55801;BME280;41730;51.960;20.158;2023-04-12T08:48:12;99546.79;;;10.79;70.46
55801;BME280;41730;51.960;20.158;2023-04-12T08:50:47;99548.25;;;10.84;70.39
55801;BME280;41730;51.960;20.158;2023-04-12T08:53:20;99546.43;;;10.90;70.23
55801;BME280;41730;51.960;20.158;2023-04-12T08:55:53;99545.18;;;10.93;70.33
55801;BME280;41730;51.960;20.158;2023-04-12T08:58:26;99542.07;;;11.16;70.06
55801;BME280;41730;51.960;20.158;2023-04-12T09:01:01;99530.46;;;11.35;69.30
55801;BME280;41730;51.960;20.158;2023-04-12T09:03:33;99527.50;;;11.31;69.56
55801;BME280;41730;51.960;20.158;2023-04-12T09:06:10;99532.19;;;11.38;69.56
55801;BME280;41730;51.960;20.158;2023-04-12T09:08:53;99530.35;;;11.48;69.33
55801;BME280;41730;51.960;20.158;2023-04-12T09:11:26;99528.66;;;11.55;69.60
55801;BME280;41730;51.960;20.158;2023-04-12T09:13:59;99526.52;;;11.67;68.74
55801;BME280;41730;51.960;20.158;2023-04-12T09:16:40;99526.38;;;11.56;69.12
55801;BME280;41730;51.960;20.158;2023-04-12T09:19:12;99522.85;;;11.46;69.64
55801;BME280;41730;51.960;20.158;2023-04-12T09:21:56;99525.10;;;11.44;69.83
55801;BME280;41730;51.960;20.158;2023-04-12T09:24:29;99523.80;;;11.56;69.56
55801;BME280;41730;51.960;20.158;2023-04-12T09:27:16;99521.62;;;11.73;69.39
55801;BME280;41730;51.960;20.158;2023-04-12T09:29:50;99526.39;;;11.92;68.48
55801;BME280;41730;51.960;20.158;2023-04-12T09:32:26;99530.40;;;11.91;68.37
55801;BME280;41730;51.960;20.158;2023-04-12T09:34:59;99535.77;;;11.86;68.82
55801;BME280;41730;51.960;20.158;2023-04-12T09:37:31;99531.30;;;11.89;68.53
55801;BME280;41730;51.960;20.158;2023-04-12T09:40:05;99531.70;;;11.95;68.34
55801;BME280;41730;51.960;20.158;2023-04-12T09:42:51;99527.97;;;11.96;68.18
55801;BME280;41730;51.960;20.158;2023-04-12T09:45:25;99524.39;;;12.14;67.35
55801;BME280;41730;51.960;20.158;2023-04-12T09:47:58;99525.48;;;12.10;67.11
55801;BME280;41730;51.960;20.158;2023-04-12T09:50:30;99521.77;;;12.02;67.56
55801;BME280;41730;51.960;20.158;2023-04-12T09:53:11;99514.55;;;12.07;67.38
55801;BME280;41730;51.960;20.158;2023-04-12T09:55:47;99509.27;;;12.28;66.94
55801;BME280;41730;51.960;20.158;2023-04-12T09:58:20;99507.52;;;12.39;66.63
55801;BME280;41730;51.960;20.158;2023-04-12T10:00:52;99500.27;;;12.38;66.55
55801;BME280;41730;51.960;20.158;2023-04-12T10:03:26;99501.14;;;12.36;67.14
55801;BME280;41730;51.960;20.158;2023-04-12T10:05:59;99504.47;;;12.43;66.92
55801;BME280;41730;51.960;20.158;2023-04-12T10:08:32;99511.21;;;12.44;66.78
55801;BME280;41730;51.960;20.158;2023-04-12T10:11:06;99511.73;;;12.42;66.78
55801;BME280;41730;51.960;20.158;2023-04-12T10:13:40;99506.31;;;12.59;66.59
55801;BME280;41730;51.960;20.158;2023-04-12T10:16:14;99504.58;;;12.68;66.12
55801;BME280;41730;51.960;20.158;2023-04-12T10:18:47;99505.67;;;12.76;66.01
55801;BME280;41730;51.960;20.158;2023-04-12T10:21:21;99501.11;;;12.82;65.18
55801;BME280;41730;51.960;20.158;2023-04-12T10:23:53;99499.35;;;12.89;65.28
55801;BME280;41730;51.960;20.158;2023-04-12T10:26:26;99499.73;;;12.99;65.19
55801;BME280;41730;51.960;20.158;2023-04-12T10:29:25;99499.77;;;12.88;65.02
55801;BME280;41730;51.960;20.158;2023-04-12T10:34:51;99486.66;;;12.74;65.65
55801;BME280;41730;51.960;20.158;2023-04-12T10:40:37;99493.02;;;12.84;65.63
55801;BME280;41730;51.960;20.158;2023-04-12T10:43:26;99495.83;;;12.89;65.41
55801;BME280;41730;51.960;20.158;2023-04-12T10:45:59;99493.46;;;13.14;65.05
55801;BME280;41730;51.960;20.158;2023-04-12T10:48:35;99492.84;;;13.52;63.87
55801;BME280;41730;51.960;20.158;2023-04-12T10:51:15;99492.16;;;13.63;63.59
55801;BME280;41730;51.960;20.158;2023-04-12T10:53:52;99491.86;;;13.69;63.37
55801;BME280;41730;51.960;20.158;2023-04-12T10:56:42;99487.89;;;13.52;63.66
55801;BME280;41730;51.960;20.158;2023-04-12T10:59:15;99487.88;;;13.30;64.32
55801;BME280;41730;51.960;20.158;2023-04-12T11:02:10;99488.00;;;13.26;64.17
55801;BME280;41730;51.960;20.158;2023-04-12T11:05:06;99485.96;;;13.31;64.44
55801;BME280;41730;51.960;20.158;2023-04-12T11:07:43;99481.62;;;13.55;63.51
55801;BME280;41730;51.960;20.158;2023-04-12T11:10:16;99482.31;;;13.59;63.43
55801;BME280;41730;51.960;20.158;2023-04-12T11:12:51;99479.12;;;13.68;62.87
55801;BME280;41730;51.960;20.158;2023-04-12T11:15:26;99483.83;;;13.52;63.24
55801;BME280;41730;51.960;20.158;2023-04-12T11:17:59;99483.05;;;13.41;63.48
55801;BME280;41730;51.960;20.158;2023-04-12T11:20:39;99483.25;;;13.39;63.22
55801;BME280;41730;51.960;20.158;2023-04-12T11:23:11;99483.05;;;13.44;63.45
55801;BME280;41730;51.960;20.158;2023-04-12T11:25:44;99480.55;;;13.43;63.11
55801;BME280;41730;51.960;20.158;2023-04-12T11:28:20;99473.52;;;13.39;63.37
55801;BME280;41730;51.960;20.158;2023-04-12T11:30:59;99475.09;;;13.55;63.24
55801;BME280;41730;51.960;20.158;2023-04-12T11:33:36;99473.47;;;13.54;62.90
55801;BME280;41730;51.960;20.158;2023-04-12T11:36:10;99478.89;;;13.44;63.15
55801;BME280;41730;51.960;20.158;2023-04-12T11:38:42;99478.70;;;13.30;63.37
55801;BME280;41730;51.960;20.158;2023-04-12T11:41:15;99477.05;;;13.26;63.10
55801;BME280;41730;51.960;20.158;2023-04-12T11:43:48;99478.18;;;13.50;62.67
55801;BME280;41730;51.960;20.158;2023-04-12T11:46:19;99479.52;;;13.69;61.92
55801;BME280;41730;51.960;20.158;2023-04-12T11:48:51;99479.42;;;13.77;61.84
55801;BME280;41730;51.960;20.158;2023-04-12T11:51:24;99474.20;;;13.81;61.40
55801;BME280;41730;51.960;20.158;2023-04-12T11:54:01;99466.46;;;13.64;61.66
55801;BME280;41730;51.960;20.158;2023-04-12T11:56:33;99466.96;;;13.58;61.92
55801;BME280;41730;51.960;20.158;2023-04-12T11:59:06;99463.35;;;13.49;62.19
55801;BME280;41730;51.960;20.158;2023-04-12T12:01:38;99461.48;;;13.46;62.06
55801;BME280;41730;51.960;20.158;2023-04-12T12:04:10;99459.82;;;13.54;62.05
55801;BME280;41730;51.960;20.158;2023-04-12T12:06:43;99454.54;;;13.70;61.58
55801;BME280;41730;51.960;20.158;2023-04-12T12:09:15;99450.81;;;13.80;61.04
55801;BME280;41730;51.960;20.158;2023-04-12T12:11:48;99446.20;;;13.90;60.73
55801;BME280;41730;51.960;20.158;2023-04-12T12:14:21;99444.88;;;13.96;60.49
55801;BME280;41730;51.960;20.158;2023-04-12T12:16:57;99441.33;;;14.08;60.18
55801;BME280;41730;51.960;20.158;2023-04-12T12:19:31;99436.78;;;13.98;60.18
55801;BME280;41730;51.960;20.158;2023-04-12T12:22:17;99434.77;;;13.87;60.27
55801;BME280;41730;51.960;20.158;2023-04-12T12:24:50;99426.38;;;13.96;59.84
55801;BME280;41730;51.960;20.158;2023-04-12T12:27:24;99424.10;;;14.11;59.45
55801;BME280;41730;51.960;20.158;2023-04-12T12:30:05;99416.73;;;14.05;59.44
55801;BME280;41730;51.960;20.158;2023-04-12T12:32:39;99414.56;;;14.03;59.54
55801;BME280;41730;51.960;20.158;2023-04-12T12:35:12;99404.98;;;14.07;59.37
55801;BME280;41730;51.960;20.158;2023-04-12T12:37:51;99403.98;;;14.20;59.37
55801;BME280;41730;51.960;20.158;2023-04-12T12:40:30;99402.42;;;14.22;59.38
55801;BME280;41730;51.960;20.158;2023-04-12T12:43:02;99398.70;;;14.27;59.11
55801;BME280;41730;51.960;20.158;2023-04-12T12:45:36;99397.51;;;14.36;58.55
55801;BME280;41730;51.960;20.158;2023-04-12T12:48:09;99398.02;;;14.36;58.41
55801;BME280;41730;51.960;20.158;2023-04-12T12:50:42;99395.61;;;14.29;58.64
55801;BME280;41730;51.960;20.158;2023-04-12T12:53:14;99396.41;;;14.32;58.27
55801;BME280;41730;51.960;20.158;2023-04-12T12:55:47;99394.02;;;14.26;57.81
55801;BME280;41730;51.960;20.158;2023-04-12T12:58:18;99391.77;;;14.21;57.75
55801;BME280;41730;51.960;20.158;2023-04-12T13:00:50;99392.46;;;14.13;58.16
55801;BME280;41730;51.960;20.158;2023-04-12T13:03:22;99385.98;;;14.05;58.55
55801;BME280;41730;51.960;20.158;2023-04-12T13:05:54;99383.85;;;14.11;58.35
55801;BME280;41730;51.960;20.158;2023-04-12T13:08:27;99383.40;;;14.02;58.56
55801;BME280;41730;51.960;20.158;2023-04-12T13:11:03;99377.95;;;13.90;58.85
55801;BME280;41730;51.960;20.158;2023-04-12T13:13:35;99376.80;;;13.87;59.13
55801;BME280;41730;51.960;20.158;2023-04-12T13:16:08;99378.30;;;13.75;59.36
55801;BME280;41730;51.960;20.158;2023-04-12T13:18:40;99380.05;;;13.56;59.79
55801;BME280;41730;51.960;20.158;2023-04-12T13:21:12;99374.63;;;13.54;60.05
55801;BME280;41730;51.960;20.158;2023-04-12T13:23:44;99377.29;;;13.54;60.01
55801;BME280;41730;51.960;20.158;2023-04-12T13:26:15;99376.73;;;13.67;60.00
55801;BME280;41730;51.960;20.158;2023-04-12T13:28:47;99370.66;;;13.87;59.60
55801;BME280;41730;51.960;20.158;2023-04-12T13:31:24;99365.62;;;14.04;59.14
55801;BME280;41730;51.960;20.158;2023-04-12T13:34:01;99367.27;;;14.03;59.27
55801;BME280;41730;51.960;20.158;2023-04-12T13:36:33;99363.30;;;14.06;59.15